sensor_id;sensor_type;location;lat;lon;timestamp;pressure;altitude;pressure_sealevel;temperature;humidity
57990;BME280;58373;51.824;5.564;2023-04-24T00:00:39;99847.41;;;8.54;100.00
57990;BME280;58373;51.824;5.564;2023-04-24T00:03:05;99851.25;;;8.49;100.00
57990;BME280;58373;51.824;5.564;2023-04-24T00:05:31;99852.59;;;8.54;100.00
57990;BME280;58373;51.824;5.564;2023-04-24T00:07:57;99846.06;;;8.49;100.00
57990;BME280;58373;51.824;5.564;2023-04-24T00:10:23;99853.66;;;8.41;100.00
57990;BME280;58373;51.824;5.564;2023-04-24T00:12:48;99846.06;;;8.49;100.00
57990;BME280;58373;51.824;5.564;2023-04-24T00:15:13;99850.66;;;8.36;100.00
57990;BME280;58373;51.824;5.564;2023-04-24T00:17:38;99850.41;;;8.39;100.00
57990;BME280;58373;51.824;5.564;2023-04-24T00:20:04;99854.91;;;8.37;100.00
57990;BME280;58373;51.824;5.564;2023-04-24T00:22:31;99859.34;;;8.35;100.00
57990;BME280;58373;51.824;5.564;2023-04-24T00:24:57;99864.50;;;8.35;100.00
57990;BME280;58373;51.824;5.564;2023-04-24T00:27:22;99861.00;;;8.36;100.00
57990;BME280;58373;51.824;5.564;2023-04-24T00:29:48;99856.53;;;8.38;100.00
57990;BME280;58373;51.824;5.564;2023-04-24T00:32:13;99865.66;;;8.52;100.00
57990;BME280;58373;51.824;5.564;2023-04-24T00:34:39;99870.25;;;8.48;100.00
57990;BME280;58373;51.824;5.564;2023-04-24T00:37:04;99856.41;;;8.49;100.00
57990;BME280;58373;51.824;5.564;2023-04-24T00:39:30;99864.84;;;8.51;100.00
57990;BME280;58373;51.824;5.564;2023-04-24T00:41:55;99859.66;;;8.51;100.00
57990;BME280;58373;51.824;5.564;2023-04-24T00:44:21;99853.28;;;8.56;100.00
57990;BME280;58373;51.824;5.564;2023-04-24T00:46:46;99871.38;;;8.56;100.00
57990;BME280;58373;51.824;5.564;2023-04-24T00:49:16;99866.47;;;8.52;100.00
57990;BME280;58373;51.824;5.564;2023-04-24T00:51:42;99866.22;;;8.56;100.00
57990;BME280;58373;51.824;5.564;2023-04-24T00:54:10;99869.19;;;8.61;100.00
57990;BME280;58373;51.824;5.564;2023-04-24T00:56:36;99862.00;;;8.55;100.00
57990;BME280;58373;51.824;5.564;2023-04-24T00:59:01;99872.47;;;8.63;100.00
57990;BME280;58373;51.824;5.564;2023-04-24T01:01:26;99864.28;;;8.58;100.00
57990;BME280;58373;51.824;5.564;2023-04-24T01:03:51;99873.66;;;8.59;100.00
57990;BME280;58373;51.824;5.564;2023-04-24T01:06:18;99869.47;;;8.58;100.00
57990;BME280;58373;51.824;5.564;2023-04-24T01:08:43;99872.72;;;8.60;100.00
57990;BME280;58373;51.824;5.564;2023-04-24T01:11:10;99871.38;;;8.56;100.00
57990;BME280;58373;51.824;5.564;2023-04-24T01:13:36;99866.22;;;8.56;100.00
57990;BME280;58373;51.824;5.564;2023-04-24T01:16:01;99865.91;;;8.59;100.00
57990;BME280;58373;51.824;5.564;2023-04-24T01:18:27;99866.72;;;8.59;100.00
57990;BME280;58373;51.824;5.564;2023-04-24T01:20:56;99855.59;;;8.59;100.00
57990;BME280;58373;51.824;5.564;2023-04-24T01:23:22;99865.09;;;8.58;100.00
57990;BME280;58373;51.824;5.564;2023-04-24T01:25:47;99864.03;;;8.61;100.00
57990;BME280;58373;51.824;5.564;2023-04-24T01:28:13;99866.47;;;8.62;100.00
57990;BME280;58373;51.824;5.564;2023-04-24T01:30:39;99857.78;;;8.73;100.00
57990;BME280;58373;51.824;5.564;2023-04-24T01:33:04;99860.19;;;8.65;100.00
57990;BME280;58373;51.824;5.564;2023-04-24T01:35:30;99864.69;;;8.63;100.00
57990;BME280;58373;51.824;5.564;2023-04-24T01:37:55;99870.84;;;8.62;100.00
57990;BME280;58373;51.824;5.564;2023-04-24T01:40:20;99859.13;;;8.67;100.00
57990;BME280;58373;51.824;5.564;2023-04-24T01:42:46;99863.75;;;8.64;100.00
57990;BME280;58373;51.824;5.564;2023-04-24T01:45:11;99863.50;;;8.67;100.00
57990;BME280;58373;51.824;5.564;2023-04-24T01:47:38;99870.69;;;8.63;100.00
57990;BME280;58373;51.824;5.564;2023-04-24T01:50:03;99862.69;;;8.66;100.00
57990;BME280;58373;51.824;5.564;2023-04-24T01:52:29;99873.56;;;8.60;100.00
57990;BME280;58373;51.824;5.564;2023-04-24T01:54:56;99859.53;;;8.63;100.00
57990;BME280;58373;51.824;5.564;2023-04-24T01:57:21;99862.13;;;8.63;100.00
57990;BME280;58373;51.824;5.564;2023-04-24T01:59:47;99871.78;;;8.61;100.00
57990;BME280;58373;51.824;5.564;2023-04-24T02:02:12;99851.78;;;8.63;100.00
57990;BME280;58373;51.824;5.564;2023-04-24T02:04:37;99864.03;;;8.61;100.00
57990;BME280;58373;51.824;5.564;2023-04-24T02:07:02;99858.06;;;8.60;100.00
57990;BME280;58373;51.824;5.564;2023-04-24T02:09:28;99856.69;;;8.56;100.00
57990;BME280;58373;51.824;5.564;2023-04-24T02:11:53;99859.13;;;8.58;100.00
57990;BME280;58373;51.824;5.564;2023-04-24T02:14:18;99861.72;;;8.58;100.00
57990;BME280;58373;51.824;5.564;2023-04-24T02:16:43;99861.72;;;8.58;100.00
57990;BME280;58373;51.824;5.564;2023-04-24T02:19:08;99858.88;;;8.61;100.00
57990;BME280;58373;51.824;5.564;2023-04-24T02:21:34;99862.38;;;8.60;100.00
57990;BME280;58373;51.824;5.564;2023-04-24T02:23:59;99868.66;;;8.57;100.00
57990;BME280;58373;51.824;5.564;2023-04-24T02:26:25;99868.50;;;8.59;100.00
57990;BME280;58373;51.824;5.564;2023-04-24T02:28:50;99870.84;;;8.62;100.00
57990;BME280;58373;51.824;5.564;2023-04-24T02:31:15;99874.63;;;8.58;100.00
57990;BME280;58373;51.824;5.564;2023-04-24T02:33:40;99871.09;;;8.59;100.00
57990;BME280;58373;51.824;5.564;2023-04-24T02:36:06;99869.75;;;8.55;100.00
57990;BME280;58373;51.824;5.564;2023-04-24T02:38:31;99870.00;;;8.51;100.00
57990;BME280;58373;51.824;5.564;2023-04-24T02:40:56;99864.84;;;8.51;100.00
57990;BME280;58373;51.824;5.564;2023-04-24T02:43:21;99870.97;;;8.50;100.00
57990;BME280;58373;51.824;5.564;2023-04-24T02:45:47;99868.63;;;8.47;100.00
57990;BME280;58373;51.824;5.564;2023-04-24T02:48:12;99870.25;;;8.48;100.00
57990;BME280;58373;51.824;5.564;2023-04-24T02:50:38;99868.38;;;8.50;100.00
57990;BME280;58373;51.824;5.564;2023-04-24T02:53:03;99861.59;;;8.49;100.00
57990;BME280;58373;51.824;5.564;2023-04-24T02:55:28;99866.44;;;8.43;100.00
57990;BME280;58373;51.824;5.564;2023-04-24T02:57:53;99864.56;;;8.45;100.00
57990;BME280;58373;51.824;5.564;2023-04-24T03:00:19;99858.03;;;8.41;100.00
57990;BME280;58373;51.824;5.564;2023-04-24T03:02:44;99860.75;;;8.39;100.00
57990;BME280;58373;51.824;5.564;2023-04-24T03:05:09;99862.53;;;8.39;100.00
57990;BME280;58373;51.824;5.564;2023-04-24T03:07:36;99862.66;;;8.37;100.00
57990;BME280;58373;51.824;5.564;2023-04-24T03:10:02;99862.88;;;8.34;100.00
57990;BME280;58373;51.824;5.564;2023-04-24T03:12:27;99864.81;;;8.32;100.00
57990;BME280;58373;51.824;5.564;2023-04-24T03:14:52;99864.50;;;8.35;100.00
57990;BME280;58373;51.824;5.564;2023-04-24T03:17:17;99864.09;;;8.30;100.00
57990;BME280;58373;51.824;5.564;2023-04-24T03:19:42;99865.34;;;8.26;100.00
57990;BME280;58373;51.824;5.564;2023-04-24T03:22:08;99862.06;;;8.24;100.00
57990;BME280;58373;51.824;5.564;2023-04-24T03:24:34;99865.59;;;8.23;100.00
57990;BME280;58373;51.824;5.564;2023-04-24T03:26:59;99860.69;;;8.20;100.00
57990;BME280;58373;51.824;5.564;2023-04-24T03:29:25;99862.34;;;8.21;100.00
57990;BME280;58373;51.824;5.564;2023-04-24T03:31:50;99860.69;;;8.20;100.00
57990;BME280;58373;51.824;5.564;2023-04-24T03:34:15;99862.59;;;8.18;100.00
57990;BME280;58373;51.824;5.564;2023-04-24T03:36:40;99866.69;;;8.20;100.00
57990;BME280;58373;51.824;5.564;2023-04-24T03:39:06;99866.38;;;8.14;100.00
57990;BME280;58373;51.824;5.564;2023-04-24T03:41:31;99863.13;;;8.12;100.00
57990;BME280;58373;51.824;5.564;2023-04-24T03:43:56;99859.88;;;8.10;100.00
57990;BME280;58373;51.824;5.564;2023-04-24T03:46:22;99858.25;;;8.09;100.00
57990;BME280;58373;51.824;5.564;2023-04-24T03:48:47;99853.31;;;8.06;100.00
57990;BME280;58373;51.824;5.564;2023-04-24T03:51:12;99860.13;;;8.07;100.00
57990;BME280;58373;51.824;5.564;2023-04-24T03:53:37;99851.94;;;8.02;100.00
57990;BME280;58373;51.824;5.564;2023-04-24T03:56:02;99856.56;;;7.98;100.00
57990;BME280;58373;51.824;5.564;2023-04-24T03:58:28;99852.47;;;7.95;100.00
57990;BME280;58373;51.824;5.564;2023-04-24T04:00:53;99849.34;;;7.92;100.00
57990;BME280;58373;51.824;5.564;2023-04-24T04:03:18;99856.00;;;7.94;100.00
57990;BME280;58373;51.824;5.564;2023-04-24T04:05:44;99858.16;;;7.89;100.00
57990;BME280;58373;51.824;5.564;2023-04-24T04:08:09;99844.59;;;7.87;100.00
57990;BME280;58373;51.824;5.564;2023-04-24T04:10:34;99848.94;;;7.87;100.00
57990;BME280;58373;51.824;5.564;2023-04-24T04:12:59;99853.28;;;7.86;100.00
57990;BME280;58373;51.824;5.564;2023-04-24T04:15:25;99849.75;;;7.87;100.00
57990;BME280;58373;51.824;5.564;2023-04-24T04:17:50;99852.72;;;7.83;100.00
57990;BME280;58373;51.824;5.564;2023-04-24T04:20:15;99858.69;;;7.83;100.00
57990;BME280;58373;51.824;5.564;2023-04-24T04:22:41;99857.06;;;7.82;100.00
57990;BME280;58373;51.824;5.564;2023-04-24T04:25:06;99857.88;;;7.83;100.00
57990;BME280;58373;51.824;5.564;2023-04-24T04:27:32;99857.06;;;7.82;100.00
57990;BME280;58373;51.824;5.564;2023-04-24T04:29:58;99858.13;;;7.80;100.00
57990;BME280;58373;51.824;5.564;2023-04-24T04:32:27;99862.47;;;7.79;100.00
57990;BME280;58373;51.824;5.564;2023-04-24T04:34:53;99863.44;;;7.78;100.00
57990;BME280;58373;51.824;5.564;2023-04-24T04:37:18;99862.47;;;7.79;100.00
57990;BME280;58373;51.824;5.564;2023-04-24T04:39:43;99857.47;;;7.78;100.00
57990;BME280;58373;51.824;5.564;2023-04-24T04:42:08;99864.66;;;7.84;100.00
57990;BME280;58373;51.824;5.564;2023-04-24T04:44:34;99867.41;;;7.82;100.00
57990;BME280;58373;51.824;5.564;2023-04-24T04:47:00;99871.19;;;7.78;100.00
57990;BME280;58373;51.824;5.564;2023-04-24T04:49:28;99882.06;;;7.82;100.00
57990;BME280;58373;51.824;5.564;2023-04-24T04:51:54;99883.13;;;7.79;100.00
57990;BME280;58373;51.824;5.564;2023-04-24T04:54:19;99891.81;;;7.78;100.00
57990;BME280;58373;51.824;5.564;2023-04-24T04:56:44;99886.66;;;7.78;100.00
57990;BME280;58373;51.824;5.564;2023-04-24T04:59:09;99900.56;;;7.87;100.00
57990;BME280;58373;51.824;5.564;2023-04-24T05:01:35;99896.75;;;7.81;100.00
57990;BME280;58373;51.824;5.564;2023-04-24T05:04:01;99896.75;;;7.81;100.00
57990;BME280;58373;51.824;5.564;2023-04-24T05:06:26;99893.22;;;7.82;100.00
57990;BME280;58373;51.824;5.564;2023-04-24T05:08:52;99894.16;;;7.81;100.00
57990;BME280;58373;51.824;5.564;2023-04-24T05:11:21;99890.19;;;7.77;100.00
57990;BME280;58373;51.824;5.564;2023-04-24T05:13:47;99895.66;;;7.84;100.00
57990;BME280;58373;51.824;5.564;2023-04-24T05:16:12;99905.31;;;7.82;100.00
57990;BME280;58373;51.824;5.564;2023-04-24T05:18:37;99897.56;;;7.82;100.00
57990;BME280;58373;51.824;5.564;2023-04-24T05:21:02;99896.47;;;7.84;100.00
57990;BME280;58373;51.824;5.564;2023-04-24T05:23:28;99901.63;;;7.84;100.00
57990;BME280;58373;51.824;5.564;2023-04-24T05:25:53;99898.50;;;7.81;100.00
57990;BME280;58373;51.824;5.564;2023-04-24T05:28:18;99901.38;;;7.87;100.00
57990;BME280;58373;51.824;5.564;2023-04-24T05:30:44;99902.50;;;7.94;100.00
57990;BME280;58373;51.824;5.564;2023-04-24T05:33:09;99906.78;;;7.84;100.00
57990;BME280;58373;51.824;5.564;2023-04-24T05:35:35;99897.59;;;7.91;100.00
57990;BME280;58373;51.824;5.564;2023-04-24T05:38:00;99910.47;;;7.82;100.00
57990;BME280;58373;51.824;5.564;2023-04-24T05:40:25;99910.06;;;7.86;100.00
57990;BME280;58373;51.824;5.564;2023-04-24T05:42:50;99911.13;;;7.84;100.00
57990;BME280;58373;51.824;5.564;2023-04-24T05:45:15;99926.09;;;7.80;100.00
57990;BME280;58373;51.824;5.564;2023-04-24T05:47:42;99921.84;;;7.79;100.00
57990;BME280;58373;51.824;5.564;2023-04-24T05:50:08;99926.09;;;7.80;100.00
57990;BME280;58373;51.824;5.564;2023-04-24T05:52:33;99926.09;;;7.80;100.00
57990;BME280;58373;51.824;5.564;2023-04-24T05:54:59;99941.56;;;7.80;100.00
57990;BME280;58373;51.824;5.564;2023-04-24T05:57:24;99942.50;;;7.79;100.00
57990;BME280;58373;51.824;5.564;2023-04-24T05:59:49;99952.59;;;7.82;100.00
57990;BME280;58373;51.824;5.564;2023-04-24T06:02:14;99952.31;;;7.85;100.00
57990;BME280;58373;51.824;5.564;2023-04-24T06:04:39;99963.84;;;7.81;100.00
57990;BME280;58373;51.824;5.564;2023-04-24T06:07:05;99971.72;;;7.80;100.00
57990;BME280;58373;51.824;5.564;2023-04-24T06:09:31;99976.75;;;7.81;100.00
57990;BME280;58373;51.824;5.564;2023-04-24T06:11:56;99990.22;;;7.85;100.00
57990;BME280;58373;51.824;5.564;2023-04-24T06:14:22;99998.09;;;7.83;100.00
57990;BME280;58373;51.824;5.564;2023-04-24T06:16:47;100000.69;;;7.83;100.00
57990;BME280;58373;51.824;5.564;2023-04-24T06:19:12;100008.44;;;7.83;100.00
57990;BME280;58373;51.824;5.564;2023-04-24T06:21:38;100025.53;;;7.84;100.00
57990;BME280;58373;51.824;5.564;2023-04-24T06:24:03;100024.03;;;7.82;100.00
57990;BME280;58373;51.824;5.564;2023-04-24T06:26:29;100029.34;;;7.80;100.00
57990;BME280;58373;51.824;5.564;2023-04-24T06:28:54;100035.25;;;7.92;100.00
57990;BME280;58373;51.824;5.564;2023-04-24T06:31:20;100042.63;;;7.76;100.00
57990;BME280;58373;51.824;5.564;2023-04-24T06:33:45;100049.56;;;7.75;100.00
57990;BME280;58373;51.824;5.564;2023-04-24T06:36:10;100059.25;;;7.83;100.00
57990;BME280;58373;51.824;5.564;2023-04-24T06:38:36;100059.09;;;7.84;100.00
57990;BME280;58373;51.824;5.564;2023-04-24T06:41:01;100062.69;;;7.72;100.00
57990;BME280;58373;51.824;5.564;2023-04-24T06:43:26;100065.28;;;7.72;100.00
57990;BME280;58373;51.824;5.564;2023-04-24T06:45:51;100073.97;;;7.71;100.00
57990;BME280;58373;51.824;5.564;2023-04-24T06:48:16;100081.44;;;7.74;100.00
57990;BME280;58373;51.824;5.564;2023-04-24T06:50:42;100074.41;;;7.76;100.00
57990;BME280;58373;51.824;5.564;2023-04-24T06:53:07;100081.22;;;7.77;100.00
57990;BME280;58373;51.824;5.564;2023-04-24T06:55:33;100083.78;;;7.77;100.00
57990;BME280;58373;51.824;5.564;2023-04-24T06:57:58;100089.09;;;7.76;100.00
57990;BME280;58373;51.824;5.564;2023-04-24T07:00:23;100091.53;;;7.77;100.00
57990;BME280;58373;51.824;5.564;2023-04-24T07:02:49;100088.00;;;7.78;100.00
57990;BME280;58373;51.824;5.564;2023-04-24T07:05:14;100089.63;;;7.79;100.00
57990;BME280;58373;51.824;5.564;2023-04-24T07:07:40;100091.78;;;7.74;100.00
57990;BME280;58373;51.824;5.564;2023-04-24T07:10:05;100106.03;;;7.89;100.00
57990;BME280;58373;51.824;5.564;2023-04-24T07:12:31;100117.34;;;7.77;100.00
57990;BME280;58373;51.824;5.564;2023-04-24T07:14:57;100114.72;;;7.88;100.00
57990;BME280;58373;51.824;5.564;2023-04-24T07:17:22;100115.44;;;7.79;100.00
57990;BME280;58373;51.824;5.564;2023-04-24T07:19:47;100122.50;;;7.77;100.00
57990;BME280;58373;51.824;5.564;2023-04-24T07:22:12;100141.53;;;7.76;100.00
57990;BME280;58373;51.824;5.564;2023-04-24T07:24:42;100149.72;;;7.81;100.00
57990;BME280;58373;51.824;5.564;2023-04-24T07:27:08;100158.00;;;7.64;100.00
57990;BME280;58373;51.824;5.564;2023-04-24T07:29:33;100180.94;;;7.78;100.00
57990;BME280;58373;51.824;5.564;2023-04-24T07:31:58;100172.56;;;7.54;100.00
57990;BME280;58373;51.824;5.564;2023-04-24T07:34:23;100185.03;;;7.49;100.00
57990;BME280;58373;51.824;5.564;2023-04-24T07:36:48;100189.03;;;7.41;100.00
57990;BME280;58373;51.824;5.564;2023-04-24T07:39:14;100200.28;;;7.52;100.00
57990;BME280;58373;51.824;5.564;2023-04-24T07:41:39;100211.53;;;7.39;100.00
57990;BME280;58373;51.824;5.564;2023-04-24T07:44:05;100220.00;;;7.41;100.00
57990;BME280;58373;51.824;5.564;2023-04-24T07:46:30;100226.56;;;7.45;100.00
57990;BME280;58373;51.824;5.564;2023-04-24T07:48:56;100227.47;;;7.44;100.00
57990;BME280;58373;51.824;5.564;2023-04-24T07:51:21;100239.00;;;7.40;100.00
57990;BME280;58373;51.824;5.564;2023-04-24T07:53:46;100242.84;;;7.46;100.00
57990;BME280;58373;51.824;5.564;2023-04-24T07:56:12;100256.59;;;7.35;100.00
57990;BME280;58373;51.824;5.564;2023-04-24T07:58:37;100254.94;;;7.34;100.00
57990;BME280;58373;51.824;5.564;2023-04-24T08:01:02;100270.66;;;7.31;100.00
57990;BME280;58373;51.824;5.564;2023-04-24T08:03:27;100265.25;;;7.34;100.00
57990;BME280;58373;51.824;5.564;2023-04-24T08:05:52;100282.13;;;7.38;100.00
57990;BME280;58373;51.824;5.564;2023-04-24T08:08:19;100280.28;;;7.40;100.00
57990;BME280;58373;51.824;5.564;2023-04-24T08:10:44;100281.56;;;7.35;100.00
57990;BME280;58373;51.824;5.564;2023-04-24T08:13:10;100286.00;;;7.44;100.00
57990;BME280;58373;51.824;5.564;2023-04-24T08:15:36;100294.81;;;7.41;100.00
57990;BME280;58373;51.824;5.564;2023-04-24T08:18:01;100301.72;;;7.41;100.00
57990;BME280;58373;51.824;5.564;2023-04-24T08:20:26;100297.38;;;7.41;100.00
57990;BME280;58373;51.824;5.564;2023-04-24T08:22:52;100316.59;;;7.60;100.00
57990;BME280;58373;51.824;5.564;2023-04-24T08:25:17;100320.25;;;7.46;100.00
57990;BME280;58373;51.824;5.564;2023-04-24T08:27:44;100323.28;;;7.51;100.00
57990;BME280;58373;51.824;5.564;2023-04-24T08:30:09;100331.16;;;7.50;100.00
57990;BME280;58373;51.824;5.564;2023-04-24T08:32:35;100347.22;;;7.53;100.00
57990;BME280;58373;51.824;5.564;2023-04-24T08:35:01;100346.75;;;7.59;100.00
57990;BME280;58373;51.824;5.564;2023-04-24T08:37:26;100350.84;;;7.62;100.00
57990;BME280;58373;51.824;5.564;2023-04-24T08:39:52;100354.50;;;7.70;100.00
57990;BME280;58373;51.824;5.564;2023-04-24T08:42:18;100367.41;;;7.59;100.00
57990;BME280;58373;51.824;5.564;2023-04-24T08:44:43;100362.13;;;7.72;100.00
57990;BME280;58373;51.824;5.564;2023-04-24T08:47:09;100367.63;;;7.56;100.00
57990;BME280;58373;51.824;5.564;2023-04-24T08:49:35;100364.34;;;7.54;100.00
57990;BME280;58373;51.824;5.564;2023-04-24T08:52:01;100375.50;;;7.55;100.00
57990;BME280;58373;51.824;5.564;2023-04-24T08:54:26;100381.72;;;7.63;100.00
57990;BME280;58373;51.824;5.564;2023-04-24T08:56:53;100386.88;;;7.52;100.00
57990;BME280;58373;51.824;5.564;2023-04-24T08:59:19;100399.66;;;7.54;100.00
57990;BME280;58373;51.824;5.564;2023-04-24T09:01:46;100404.34;;;7.60;100.00
57990;BME280;58373;51.824;5.564;2023-04-24T09:04:13;100399.91;;;7.73;100.00
57990;BME280;58373;51.824;5.564;2023-04-24T09:06:40;100412.31;;;7.68;100.00
57990;BME280;58373;51.824;5.564;2023-04-24T09:09:05;100411.63;;;7.77;100.00
57990;BME280;58373;51.824;5.564;2023-04-24T09:11:31;100411.63;;;7.77;100.00
57990;BME280;58373;51.824;5.564;2023-04-24T09:13:57;100421.03;;;7.78;100.00
57990;BME280;58373;51.824;5.564;2023-04-24T09:16:23;100421.50;;;7.83;100.00
57990;BME280;58373;51.824;5.564;2023-04-24T09:18:49;100436.03;;;7.95;100.00
57990;BME280;58373;51.824;5.564;2023-04-24T09:21:14;100439.34;;;7.97;100.00
57990;BME280;58373;51.824;5.564;2023-04-24T09:23:40;100439.56;;;7.94;100.00
57990;BME280;58373;51.824;5.564;2023-04-24T09:26:05;100445.44;;;7.85;100.00
57990;BME280;58373;51.824;5.564;2023-04-24T09:31:06;100457.88;;;7.80;100.00
57990;BME280;58373;51.824;5.564;2023-04-24T09:33:32;100457.63;;;7.83;100.00
57990;BME280;58373;51.824;5.564;2023-04-24T09:35:57;100459.63;;;7.80;100.00
57990;BME280;58373;51.824;5.564;2023-04-24T09:38:30;100456.94;;;7.81;99.97
57990;BME280;58373;51.824;5.564;2023-04-24T09:40:55;100473.81;;;7.74;100.00
57990;BME280;58373;51.824;5.564;2023-04-24T09:43:23;100479.56;;;7.78;100.00
57990;BME280;58373;51.824;5.564;2023-04-24T09:45:51;100477.22;;;7.97;99.95
57990;BME280;58373;51.824;5.564;2023-04-24T09:48:20;100477.81;;;7.89;100.00
57990;BME280;58373;51.824;5.564;2023-04-24T09:50:54;100477.63;;;8.04;99.39
57990;BME280;58373;51.824;5.564;2023-04-24T09:53:23;100478.91;;;8.09;98.66
57990;BME280;58373;51.824;5.564;2023-04-24T09:55:48;100485.13;;;8.18;97.98
57990;BME280;58373;51.824;5.564;2023-04-24T09:58:15;100497.09;;;8.30;96.71
57990;BME280;58373;51.824;5.564;2023-04-24T10:00:40;100520.38;;;8.41;95.27
57990;BME280;58373;51.824;5.564;2023-04-24T10:03:06;100507.06;;;8.35;95.05
57990;BME280;58373;51.824;5.564;2023-04-24T10:05:35;100508.84;;;8.34;95.01
57990;BME280;58373;51.824;5.564;2023-04-24T10:08:10;100519.41;;;8.42;95.82
57990;BME280;58373;51.824;5.564;2023-04-24T10:10:43;100520.81;;;8.35;94.54
57990;BME280;58373;51.824;5.564;2023-04-24T10:13:08;100525.63;;;8.29;95.11
57990;BME280;58373;51.824;5.564;2023-04-24T10:15:35;100514.94;;;8.22;93.47
57990;BME280;58373;51.824;5.564;2023-04-24T10:18:00;100528.56;;;8.24;93.37
57990;BME280;58373;51.824;5.564;2023-04-24T10:20:26;100529.28;;;8.26;93.76
57990;BME280;58373;51.824;5.564;2023-04-24T10:22:53;100540.78;;;8.22;93.52
57990;BME280;58373;51.824;5.564;2023-04-24T10:25:19;100540.78;;;8.22;94.34
57990;BME280;58373;51.824;5.564;2023-04-24T10:27:45;100545.47;;;8.28;93.12
57990;BME280;58373;51.824;5.564;2023-04-24T10:30:11;100546.16;;;8.30;94.50
57990;BME280;58373;51.824;5.564;2023-04-24T10:32:37;100550.91;;;8.36;93.63
57990;BME280;58373;51.824;5.564;2023-04-24T10:35:02;100551.63;;;8.38;93.38
57990;BME280;58373;51.824;5.564;2023-04-24T10:37:27;100557.31;;;8.31;92.26
57990;BME280;58373;51.824;5.564;2023-04-24T10:39:53;100572.75;;;8.32;92.00
57990;BME280;58373;51.824;5.564;2023-04-24T10:42:19;100561.56;;;8.20;91.04
57990;BME280;58373;51.824;5.564;2023-04-24T10:44:46;100570.38;;;8.18;90.91
57990;BME280;58373;51.824;5.564;2023-04-24T10:47:12;100560.75;;;8.09;91.56
57990;BME280;58373;51.824;5.564;2023-04-24T10:49:37;100571.78;;;8.22;89.39
57990;BME280;58373;51.824;5.564;2023-04-24T10:52:03;100565.91;;;8.09;91.38
57990;BME280;58373;51.824;5.564;2023-04-24T10:54:35;100573.63;;;8.20;89.96
57990;BME280;58373;51.824;5.564;2023-04-24T10:59:44;100582.16;;;8.44;90.13
57990;BME280;58373;51.824;5.564;2023-04-24T11:02:10;100582.72;;;8.48;90.06
57990;BME280;58373;51.824;5.564;2023-04-24T11:04:35;100573.69;;;8.54;90.63
57990;BME280;58373;51.824;5.564;2023-04-24T11:07:02;100588.63;;;8.61;89.06
57990;BME280;58373;51.824;5.564;2023-04-24T11:09:27;100586.13;;;8.60;88.95
57990;BME280;58373;51.824;5.564;2023-04-24T11:14:31;100599.31;;;8.57;87.87
57990;BME280;58373;51.824;5.564;2023-04-24T11:17:29;100600.72;;;8.49;88.98
57990;BME280;58373;51.824;5.564;2023-04-24T11:20:00;100602.59;;;8.47;89.74
57990;BME280;58373;51.824;5.564;2023-04-24T11:22:25;100600.00;;;8.59;88.03
57990;BME280;58373;51.824;5.564;2023-04-24T11:24:53;100606.94;;;8.47;89.14
57990;BME280;58373;51.824;5.564;2023-04-24T11:27:19;100605.91;;;8.49;88.45
57990;BME280;58373;51.824;5.564;2023-04-24T11:34:54;100623.53;;;8.44;88.54
57990;BME280;58373;51.824;5.564;2023-04-24T11:37:19;100631.91;;;8.35;88.65
57990;BME280;58373;51.824;5.564;2023-04-24T11:39:44;100624.16;;;8.35;88.98
57990;BME280;58373;51.824;5.564;2023-04-24T11:42:10;100634.31;;;8.38;88.76
57990;BME280;58373;51.824;5.564;2023-04-24T11:44:35;100625.16;;;8.45;89.93
57990;BME280;58373;51.824;5.564;2023-04-24T11:47:05;100623.75;;;8.52;90.32
57990;BME280;58373;51.824;5.564;2023-04-24T11:49:30;100625.38;;;8.65;89.98
57990;BME280;58373;51.824;5.564;2023-04-24T11:51:56;100633.88;;;8.67;88.44
57990;BME280;58373;51.824;5.564;2023-04-24T11:54:21;100640.22;;;8.74;88.88
57990;BME280;58373;51.824;5.564;2023-04-24T11:56:47;100650.31;;;8.77;88.64
57990;BME280;58373;51.824;5.564;2023-04-24T11:59:12;100651.72;;;8.92;88.03
57990;BME280;58373;51.824;5.564;2023-04-24T12:01:46;100653.34;;;9.04;86.40
57990;BME280;58373;51.824;5.564;2023-04-24T12:04:12;100653.81;;;8.98;85.62
57990;BME280;58373;51.824;5.564;2023-04-24T12:06:37;100661.59;;;8.87;84.06
57990;BME280;58373;51.824;5.564;2023-04-24T12:09:03;100672.66;;;9.00;82.77
57990;BME280;58373;51.824;5.564;2023-04-24T12:11:28;100670.75;;;9.02;82.13
57990;BME280;58373;51.824;5.564;2023-04-24T12:13:53;100669.94;;;8.80;83.44
57990;BME280;58373;51.824;5.564;2023-04-24T12:16:18;100676.63;;;8.71;83.45
57990;BME280;58373;51.824;5.564;2023-04-24T12:18:44;100677.34;;;8.62;85.27
57990;BME280;58373;51.824;5.564;2023-04-24T12:21:18;100675.47;;;8.64;85.39
57990;BME280;58373;51.824;5.564;2023-04-24T12:23:44;100682.50;;;8.62;86.73
57990;BME280;58373;51.824;5.564;2023-04-24T12:26:16;100684.38;;;8.60;88.52
57990;BME280;58373;51.824;5.564;2023-04-24T12:28:41;100693.22;;;8.68;87.20
57990;BME280;58373;51.824;5.564;2023-04-24T12:31:07;100694.50;;;8.63;87.94
57990;BME280;58373;51.824;5.564;2023-04-24T12:33:33;100697.22;;;8.61;90.80
57990;BME280;58373;51.824;5.564;2023-04-24T12:35:59;100699.41;;;8.66;89.21
57990;BME280;58373;51.824;5.564;2023-04-24T12:38:25;100695.09;;;8.66;89.83
57990;BME280;58373;51.824;5.564;2023-04-24T12:41:04;100702.03;;;8.88;90.43
57990;BME280;58373;51.824;5.564;2023-04-24T12:43:29;100699.22;;;8.91;90.89
57990;BME280;58373;51.824;5.564;2023-04-24T12:45:55;100706.50;;;9.09;91.68
57990;BME280;58373;51.824;5.564;2023-04-24T12:48:20;100699.66;;;9.30;90.98
57990;BME280;58373;51.824;5.564;2023-04-24T12:50:46;100705.75;;;9.40;91.39
57990;BME280;58373;51.824;5.564;2023-04-24T12:53:12;100707.75;;;9.48;91.28
57990;BME280;58373;51.824;5.564;2023-04-24T12:55:37;100704.22;;;9.49;90.58
57990;BME280;58373;51.824;5.564;2023-04-24T12:58:02;100701.75;;;9.47;88.38
57990;BME280;58373;51.824;5.564;2023-04-24T13:00:28;100704.81;;;9.52;88.83
57990;BME280;58373;51.824;5.564;2023-04-24T13:02:53;100705.53;;;9.43;89.25